Time;durP1;ratioP1;P1;durP2;ratioP2;P2;SDS_P1;SDS_P2;PMS_P1;PMS_P2;Temp;Humidity;BMP_temperature;BMP_pressure;BME280_temperature;BME280_humidity;BME280_pressure;Samples;Min_cycle;Max_cycle;Signal;HPM_P1;HPM_P2
2023/08/06 00:01:25;;;;;;;6.10;2.38;;;;;;;14.59;100.00;98148.44;5033126;28;20022;-72
2023/08/06 00:03:50;;;;;;;3.55;2.13;;;;;;;14.51;100.00;98146.06;5031822;28;20120;-71
2023/08/06 00:06:16;;;;;;;3.95;2.30;;;;;;;14.52;100.00;98147.75;5017444;28;20125;-71
2023/08/06 00:08:41;;;;;;;6.18;2.47;;;;;;;14.45;100.00;98133.44;5011979;28;20075;-71
2023/08/06 00:11:06;;;;;;;3.97;2.42;;;;;;;14.39;100.00;98137.97;5014100;28;20091;-72
2023/08/06 00:13:32;;;;;;;3.80;2.78;;;;;;;14.38;100.00;98132.78;5012562;28;20044;-72
2023/08/06 00:16:09;;;;;;;3.70;2.55;;;;;;;14.30;100.00;98130.44;5011681;28;20022;-72
2023/08/06 00:18:34;;;;;;;3.00;2.13;;;;;;;14.28;100.00;98128.00;4996404;28;20116;-72
2023/08/06 00:21:00;;;;;;;4.35;2.85;;;;;;;14.28;100.00;98132.59;5011967;28;20104;-72
2023/08/06 00:23:25;;;;;;;3.20;2.30;;;;;;;14.24;100.00;98116.75;5012728;28;20044;-72
2023/08/06 00:25:50;;;;;;;3.72;2.70;;;;;;;14.20;100.00;98120.19;5013522;28;20112;-72
2023/08/06 00:28:15;;;;;;;4.65;2.70;;;;;;;14.22;100.00;98123.50;5008255;28;20033;-72
2023/08/06 00:30:41;;;;;;;12.93;3.22;;;;;;;14.19;100.00;98119.38;5007404;28;20030;-72
2023/08/06 00:33:06;;;;;;;6.25;3.20;;;;;;;14.13;100.00;98109.47;5012775;28;20038;-72
2023/08/06 00:35:31;;;;;;;5.53;2.95;;;;;;;14.13;100.00;98117.63;5011131;28;20030;-72
2023/08/06 00:37:56;;;;;;;5.35;2.95;;;;;;;14.13;100.00;98114.91;5013562;28;20387;-73
2023/08/06 00:40:22;;;;;;;5.35;2.90;;;;;;;14.14;100.00;98116.56;5009887;28;20213;-72
2023/08/06 00:42:48;;;;;;;13.70;3.22;;;;;;;14.13;100.00;98109.47;5010536;28;20033;-72
2023/08/06 00:45:13;;;;;;;4.85;3.47;;;;;;;14.06;100.00;98108.78;5012146;28;20369;-72
2023/08/06 00:47:39;;;;;;;5.25;3.28;;;;;;;14.09;100.00;98086.53;5013527;28;20104;-72
2023/08/06 00:50:07;;;;;;;4.82;3.17;;;;;;;14.12;100.00;98104.28;5008672;28;20398;-72
2023/08/06 00:52:33;;;;;;;6.97;2.65;;;;;;;14.07;100.00;98096.00;4998161;28;20034;-72
2023/08/06 00:54:58;;;;;;;5.60;3.00;;;;;;;14.20;100.00;98102.00;5012002;28;20025;-72
2023/08/06 00:57:26;;;;;;;4.25;3.03;;;;;;;14.16;100.00;98092.66;5009753;28;20033;-72
2023/08/06 00:59:51;;;;;;;4.10;2.90;;;;;;;14.18;100.00;98097.88;5009204;28;20029;-72
2023/08/06 01:02:17;;;;;;;3.95;2.80;;;;;;;14.21;100.00;98087.31;5010652;28;20084;-72
2023/08/06 01:04:42;;;;;;;5.28;3.20;;;;;;;14.20;100.00;98088.41;5005563;28;20076;-72
2023/08/06 01:07:25;;;;;;;6.03;3.47;;;;;;;14.21;100.00;98100.91;5009746;28;20022;-72
2023/08/06 01:10:18;;;;;;;17.27;3.58;;;;;;;14.20;100.00;98099.28;5000033;28;20108;-72
2023/08/06 01:13:08;;;;;;;4.97;3.17;;;;;;;14.13;100.00;98090.44;5007144;28;20496;-72
2023/08/06 01:15:43;;;;;;;6.00;3.55;;;;;;;14.17;100.00;98080.72;5010729;28;20127;-72
2023/08/06 01:18:10;;;;;;;5.85;3.22;;;;;;;14.14;100.00;98080.38;5011790;28;20032;-72
2023/08/06 01:20:35;;;;;;;5.10;3.10;;;;;;;14.27;100.00;98085.50;5003767;28;20057;-72
2023/08/06 01:23:00;;;;;;;4.20;2.85;;;;;;;14.17;100.00;98077.16;5010291;28;20061;-72
2023/08/06 01:25:31;;;;;;;6.97;3.50;;;;;;;14.24;100.00;98080.56;5011245;28;20025;-72
2023/08/06 01:28:04;;;;;;;7.70;3.30;;;;;;;14.27;100.00;98073.81;4990516;28;20053;-72
2023/08/06 01:30:36;;;;;;;6.10;3.65;;;;;;;14.24;100.00;98051.44;5005424;28;20372;-72
2023/08/06 01:33:04;;;;;;;3.90;2.65;;;;;;;14.25;100.00;98064.00;5010445;28;20085;-72
2023/08/06 01:35:30;;;;;;;4.82;3.05;;;;;;;14.19;100.00;98051.38;4990948;28;20060;-72
2023/08/06 01:37:56;;;;;;;4.45;3.25;;;;;;;14.12;100.00;98037.13;5011903;28;20492;-72
2023/08/06 01:40:22;;;;;;;7.70;3.15;;;;;;;14.13;100.00;98044.19;5009744;28;20053;-72
2023/08/06 01:42:47;;;;;;;4.32;2.70;;;;;;;14.03;100.00;98036.66;5011883;28;20028;-72
2023/08/06 01:45:12;;;;;;;5.53;2.90;;;;;;;13.96;100.00;98041.44;4990110;28;20021;-72
2023/08/06 01:47:37;;;;;;;6.40;2.97;;;;;;;13.94;100.00;98040.88;5006079;28;20036;-72
2023/08/06 01:50:03;;;;;;;5.30;3.10;;;;;;;13.97;100.00;98051.25;5007535;28;20026;-72
2023/08/06 01:52:28;;;;;;;3.60;3.10;;;;;;;14.06;100.00;98043.50;5010251;28;21005;-73
2023/08/06 01:54:54;;;;;;;5.78;3.10;;;;;;;14.06;100.00;98027.19;4993458;28;20034;-72
2023/08/06 01:57:20;;;;;;;6.03;3.10;;;;;;;14.15;100.00;98033.06;4998024;28;20022;-72
2023/08/06 01:59:45;;;;;;;5.93;2.83;;;;;;;14.23;100.00;98025.31;4996967;28;20034;-72
2023/08/06 02:02:10;;;;;;;4.97;2.88;;;;;;;14.29;100.00;98026.22;5004257;28;20022;-72
2023/08/06 02:04:36;;;;;;;4.75;2.90;;;;;;;14.36;100.00;98018.75;5011009;28;20108;-72
2023/08/06 02:07:01;;;;;;;6.15;2.92;;;;;;;14.45;100.00;97997.38;4992046;28;20025;-72
2023/08/06 02:09:26;;;;;;;7.22;3.13;;;;;;;14.51;100.00;98009.16;5009560;28;20034;-72
2023/08/06 02:11:51;;;;;;;6.43;3.28;;;;;;;14.49;100.00;97998.53;5009223;28;20026;-72
2023/08/06 02:14:17;;;;;;;4.93;3.10;;;;;;;14.42;100.00;97984.25;5014629;28;20153;-72
2023/08/06 02:16:42;;;;;;;4.82;3.10;;;;;;;14.40;100.00;97995.38;5010438;28;20460;-71
2023/08/06 02:19:07;;;;;;;4.60;3.53;;;;;;;14.34;100.00;98001.00;5013893;28;20030;-71
2023/08/06 02:21:33;;;;;;;6.90;3.50;;;;;;;14.28;100.00;98001.97;4996128;28;20032;-72
2023/08/06 02:23:58;;;;;;;6.80;4.22;;;;;;;14.20;100.00;97998.63;5012588;28;20029;-72
2023/08/06 02:26:23;;;;;;;4.75;3.05;;;;;;;14.19;100.00;97998.84;5014790;28;20022;-72
2023/08/06 02:28:49;;;;;;;6.57;3.25;;;;;;;14.27;100.00;97981.28;5015476;28;20475;-71
2023/08/06 02:31:14;;;;;;;5.55;2.75;;;;;;;14.27;100.00;97971.22;5011614;28;20065;-72
2023/08/06 02:33:39;;;;;;;5.70;3.25;;;;;;;14.37;100.00;97970.56;5013489;28;20030;-71
2023/08/06 02:36:04;;;;;;;4.80;2.97;;;;;;;14.40;100.00;97965.44;4996081;28;20030;-71
2023/08/06 02:38:31;;;;;;;4.38;2.75;;;;;;;14.44;100.00;97958.44;5015014;28;20026;-71
2023/08/06 02:40:56;;;;;;;3.83;2.42;;;;;;;14.43;100.00;97940.47;5013886;28;20057;-71
2023/08/06 02:43:21;;;;;;;3.60;2.25;;;;;;;14.50;100.00;97934.03;5011731;28;20061;-71
2023/08/06 02:45:47;;;;;;;8.75;2.67;;;;;;;14.65;100.00;97934.28;5013798;28;20036;-72
2023/08/06 02:48:12;;;;;;;4.35;2.53;;;;;;;14.63;100.00;97929.09;5015401;28;20025;-71
2023/08/06 02:50:41;;;;;;;5.65;2.55;;;;;;;14.64;100.00;97930.72;5012137;28;20076;-71
2023/08/06 02:53:07;;;;;;;7.57;2.67;;;;;;;14.67;100.00;97924.78;5013490;28;20116;-71
2023/08/06 02:55:33;;;;;;;5.25;2.67;;;;;;;14.64;100.00;97913.56;5012737;28;20052;-72
2023/08/06 02:58:00;;;;;;;5.13;2.28;;;;;;;14.62;100.00;97919.28;5012270;28;20104;-72
2023/08/06 03:00:25;;;;;;;3.15;2.30;;;;;;;14.61;100.00;97916.78;5009340;28;20034;-72
2023/08/06 03:02:51;;;;;;;4.55;2.15;;;;;;;14.50;100.00;97918.53;5015574;28;20010;-72
2023/08/06 03:05:16;;;;;;;4.45;2.58;;;;;;;14.49;100.00;97922.31;5015395;28;20559;-72
2023/08/06 03:07:41;;;;;;;3.42;2.20;;;;;;;14.40;100.00;97924.63;5012442;28;20071;-72
2023/08/06 03:10:07;;;;;;;3.30;2.53;;;;;;;14.40;100.00;97910.22;5013041;28;20026;-72
2023/08/06 03:12:32;;;;;;;4.13;2.53;;;;;;;14.40;100.00;97902.03;5013052;28;20148;-72
2023/08/06 03:14:57;;;;;;;4.30;2.33;;;;;;;14.48;100.00;97909.78;5009737;28;20482;-72
2023/08/06 03:17:23;;;;;;;5.10;2.45;;;;;;;14.48;100.00;97905.16;5013402;28;20084;-72
2023/08/06 03:19:48;;;;;;;6.68;2.47;;;;;;;14.42;100.00;97906.16;5005026;28;20514;-72
2023/08/06 03:22:13;;;;;;;4.68;2.55;;;;;;;14.40;100.00;97896.59;4986540;28;20032;-72
2023/08/06 03:24:38;;;;;;;3.08;2.25;;;;;;;14.30;100.00;97891.81;5012534;28;20079;-72
2023/08/06 03:27:04;;;;;;;4.03;2.47;;;;;;;14.37;100.00;97903.38;5009385;28;20036;-72
2023/08/06 03:29:29;;;;;;;6.68;2.55;;;;;;;14.32;100.00;97910.63;4992990;28;20033;-72
2023/08/06 03:31:54;;;;;;;7.50;2.45;;;;;;;14.32;100.00;97911.44;5008656;28;20033;-72
2023/08/06 03:34:20;;;;;;;4.75;2.38;;;;;;;14.37;100.00;97903.38;5005380;28;20033;-72
2023/08/06 03:36:45;;;;;;;4.88;2.33;;;;;;;14.37;100.00;97908.81;5013069;28;20030;-72
2023/08/06 03:39:10;;;;;;;5.85;2.40;;;;;;;14.43;100.00;97912.44;5011117;28;20109;-72
2023/08/06 03:41:35;;;;;;;6.25;2.67;;;;;;;14.48;100.00;97909.78;5012899;28;20021;-72
2023/08/06 03:44:03;;;;;;;5.22;2.17;;;;;;;14.40;100.00;97912.94;5013214;28;20521;-72
2023/08/06 03:46:29;;;;;;;2.92;2.08;;;;;;;14.46;100.00;97896.44;5008518;28;20045;-72
2023/08/06 03:48:54;;;;;;;4.15;2.20;;;;;;;14.50;100.00;97906.81;5008047;28;20029;-72
2023/08/06 03:51:19;;;;;;;4.45;2.20;;;;;;;14.47;100.00;97902.69;5005820;28;20041;-72
2023/08/06 03:53:44;;;;;;;3.53;2.22;;;;;;;14.50;100.00;97906.81;5011348;28;20029;-72
2023/08/06 03:56:10;;;;;;;6.05;2.22;;;;;;;14.45;100.00;97911.09;5012681;28;20919;-72
2023/08/06 03:58:35;;;;;;;6.07;2.42;;;;;;;14.38;100.00;97896.88;4984866;28;20025;-72
2023/08/06 04:01:02;;;;;;;5.50;2.20;;;;;;;14.38;100.00;97912.34;5003879;28;20026;-72
2023/08/06 04:03:27;;;;;;;8.00;2.08;;;;;;;14.33;100.00;97910.41;5013227;28;20033;-72
2023/08/06 04:05:54;;;;;;;3.20;1.95;;;;;;;14.36;100.00;97911.81;5013691;28;20387;-72
2023/08/06 04:08:19;;;;;;;4.40;2.13;;;;;;;14.38;100.00;97921.38;5010738;28;20561;-72
2023/08/06 04:10:44;;;;;;;3.42;2.00;;;;;;;14.38;100.00;97917.78;5011518;28;20030;-73
2023/08/06 04:13:10;;;;;;;5.15;2.33;;;;;;;14.45;100.00;97926.59;5013160;28;20029;-72
2023/08/06 04:15:35;;;;;;;5.68;2.22;;;;;;;14.49;100.00;97930.50;5007842;28;20044;-72
2023/08/06 04:18:00;;;;;;;6.45;2.67;;;;;;;14.50;100.00;97932.13;5012933;28;20044;-72
2023/08/06 04:20:25;;;;;;;4.10;2.42;;;;;;;14.53;100.00;97942.53;5011204;28;20113;-72
2023/08/06 04:22:51;;;;;;;3.20;2.47;;;;;;;14.41;100.00;97942.63;5009535;28;20025;-72
2023/08/06 04:25:20;;;;;;;6.35;3.03;;;;;;;14.44;100.00;97947.56;5013086;28;20022;-73
2023/08/06 04:27:46;;;;;;;4.05;2.40;;;;;;;14.39;100.00;97944.78;5004136;28;20041;-73
2023/08/06 04:30:12;;;;;;;5.20;2.20;;;;;;;14.41;100.00;97947.25;5010790;28;20030;-73
2023/08/06 04:32:37;;;;;;;5.47;2.85;;;;;;;14.39;100.00;97955.66;5005481;28;20030;-73
2023/08/06 04:35:03;;;;;;;4.05;2.65;;;;;;;14.38;100.00;97945.84;5010675;28;20056;-73
2023/08/06 04:37:28;;;;;;;5.47;2.70;;;;;;;14.44;100.00;97944.03;5005297;28;20018;-72
2023/08/06 04:39:54;;;;;;;6.45;2.50;;;;;;;14.48;100.00;97947.88;5011767;28;20156;-73
2023/08/06 04:42:19;;;;;;;7.60;2.10;;;;;;;14.59;100.00;97947.00;5010431;28;20032;-73
2023/08/06 04:44:44;;;;;;;4.38;2.13;;;;;;;14.49;100.00;97935.94;5010101;28;20029;-73
2023/08/06 04:47:09;;;;;;;5.78;2.17;;;;;;;14.43;100.00;97929.56;5007931;28;20480;-72
2023/08/06 04:49:35;;;;;;;3.15;1.80;;;;;;;14.48;100.00;97931.56;5008737;28;20037;-73
2023/08/06 04:52:00;;;;;;;3.60;1.80;;;;;;;14.43;100.00;97936.91;5008818;28;20022;-73
2023/08/06 04:54:25;;;;;;;3.55;1.65;;;;;;;14.44;100.00;97938.59;5010686;28;20484;-72
2023/08/06 04:56:51;;;;;;;3.95;1.60;;;;;;;14.27;100.00;97916.00;5009898;28;20033;-72
2023/08/06 04:59:16;;;;;;;9.20;1.38;;;;;;;14.41;100.00;97931.75;5011693;28;20563;-72
2023/08/06 05:01:41;;;;;;;3.45;1.65;;;;;;;14.59;100.00;97927.94;5003444;28;20022;-72
2023/08/06 05:04:06;;;;;;;1.88;1.27;;;;;;;14.58;100.00;97926.28;5012225;28;20025;-72
2023/08/06 05:06:32;;;;;;;2.75;1.40;;;;;;;14.58;100.00;97915.41;5012100;28;20469;-72
2023/08/06 05:08:57;;;;;;;2.10;1.17;;;;;;;14.70;100.00;97920.75;5011434;28;20107;-72
2023/08/06 05:11:24;;;;;;;2.78;1.30;;;;;;;14.74;100.00;97918.34;5009703;28;20050;-73
2023/08/06 05:13:49;;;;;;;2.05;0.85;;;;;;;14.65;100.00;97907.88;5009231;28;20030;-73
2023/08/06 05:16:15;;;;;;;2.83;0.85;;;;;;;14.55;100.00;97915.91;5010965;28;20395;-73
2023/08/06 05:18:41;;;;;;;5.85;0.98;;;;;;;14.56;100.00;97903.94;5007280;28;20494;-73
2023/08/06 05:21:06;;;;;;;2.58;0.70;;;;;;;14.61;100.00;97904.00;5011402;28;20026;-72
2023/08/06 05:23:32;;;;;;;1.77;0.77;;;;;;;14.67;100.00;97908.47;5008351;28;20029;-73
2023/08/06 05:25:57;;;;;;;2.95;0.80;;;;;;;14.62;100.00;97896.69;5003254;28;20084;-73
2023/08/06 05:28:22;;;;;;;1.25;0.70;;;;;;;14.73;100.00;97903.09;4995900;28;20435;-76
2023/08/06 05:30:48;;;;;;;1.42;0.70;;;;;;;14.77;100.00;97902.31;5010515;28;20052;-78
2023/08/06 05:33:13;;;;;;;1.88;0.80;;;;;;;14.98;100.00;97899.84;5016034;28;20025;-79
2023/08/06 05:35:41;;;;;;;3.28;0.68;;;;;;;14.93;100.00;97892.44;5016368;28;20030;-78
2023/08/06 05:38:07;;;;;;;1.67;0.57;;;;;;;15.16;100.00;97887.78;5016926;28;20037;-78
2023/08/06 05:40:35;;;;;;;1.55;0.65;;;;;;;14.97;100.00;97882.69;4999912;28;20022;-78
2023/08/06 05:43:01;;;;;;;1.00;0.60;;;;;;;14.99;100.00;97887.88;5004416;28;20030;-79
2023/08/06 05:45:26;;;;;;;2.60;0.90;;;;;;;15.08;100.00;97884.44;5015602;28;20037;-79
2023/08/06 05:47:53;;;;;;;0.93;0.57;;;;;;;15.16;100.00;97879.63;4996394;28;20029;-79
2023/08/06 05:50:19;;;;;;;9.00;1.00;;;;;;;15.17;100.00;97882.09;5013600;28;20383;-78
2023/08/06 05:52:44;;;;;;;3.45;0.80;;;;;;;15.15;100.00;97897.06;5013361;28;20026;-79
2023/08/06 05:55:10;;;;;;;2.15;0.60;;;;;;;15.10;100.00;97904.09;4996435;28;20022;-79
2023/08/06 05:57:35;;;;;;;1.10;0.45;;;;;;;14.95;100.00;97905.81;5147125;22;20556;-55
2023/08/06 06:00:01;;;;;;;5.80;0.60;;;;;;;14.80;100.00;97922.75;5039016;28;20396;-62
2023/08/06 06:02:37;;;;;;;2.67;0.63;;;;;;;14.71;100.00;97925.09;5030901;28;20104;-60
2023/08/06 06:05:03;;;;;;;1.15;0.73;;;;;;;14.73;100.00;97930.31;5023334;28;20044;-57
2023/08/06 06:07:29;;;;;;;1.50;0.55;;;;;;;14.56;100.00;97931.16;5028403;28;20026;-54
2023/08/06 06:09:55;;;;;;;5.07;0.65;;;;;;;14.71;100.00;97936.00;5017655;28;20018;-55
2023/08/06 06:12:26;;;;;;;3.15;0.50;;;;;;;14.85;100.00;97931.00;5027786;28;20020;-54
2023/08/06 06:14:51;;;;;;;1.00;0.52;;;;;;;14.80;100.00;97936.38;5021980;28;20037;-55
2023/08/06 06:17:16;;;;;;;2.08;0.60;;;;;;;14.94;100.00;97937.66;5022158;28;20075;-54
2023/08/06 06:19:42;;;;;;;0.77;0.50;;;;;;;14.68;100.00;97893.75;5009756;28;20100;-53
2023/08/06 06:22:07;;;;;;;2.22;0.50;;;;;;;14.82;100.00;97926.88;5018617;28;20080;-54
2023/08/06 06:24:33;;;;;;;1.33;0.47;;;;;;;14.92;100.00;97930.81;5010320;28;20034;-54
2023/08/06 06:26:58;;;;;;;2.80;0.80;;;;;;;15.25;100.00;97925.25;5018275;28;20025;-54
2023/08/06 06:29:24;;;;;;;2.40;0.70;;;;;;;15.39;100.00;97920.22;5024290;28;20489;-53
2023/08/06 06:31:49;;;;;;;2.60;0.55;;;;;;;15.18;100.00;97926.53;5030609;28;20020;-53
2023/08/06 06:34:15;;;;;;;5.68;0.50;;;;;;;15.31;100.00;97934.28;5031071;28;20041;-54
2023/08/06 06:36:40;;;;;;;1.30;0.60;;;;;;;15.06;100.00;97943.81;5020419;28;20049;-54
2023/08/06 06:39:06;;;;;;;1.95;0.70;;;;;;;15.00;100.00;97947.53;5019604;28;20160;-53
2023/08/06 06:41:32;;;;;;;2.13;0.57;;;;;;;15.06;100.00;97942.97;5027513;28;20473;-53
2023/08/06 06:43:58;;;;;;;1.60;0.50;;;;;;;15.38;100.00;97936.81;5024033;28;20109;-53
2023/08/06 06:46:24;;;;;;;1.33;0.68;;;;;;;15.90;100.00;97922.63;5017568;28;20033;-53
2023/08/06 06:48:49;;;;;;;2.17;0.60;;;;;;;15.91;100.00;97916.13;5022290;28;20049;-53
2023/08/06 06:51:14;;;;;;;2.25;0.50;;;;;;;16.36;100.00;97921.09;5025794;28;20111;-53
2023/08/06 06:53:40;;;;;;;1.58;0.60;;;;;;;16.71;100.00;97918.84;5019995;28;20021;-53
2023/08/06 06:56:06;;;;;;;1.95;0.63;;;;;;;16.46;100.00;97923.06;5027515;28;20063;-54
2023/08/06 06:58:32;;;;;;;2.05;0.68;;;;;;;16.44;100.00;97922.50;5024623;28;20050;-54
2023/08/06 07:00:57;;;;;;;1.13;0.52;;;;;;;16.06;100.00;97929.03;5029171;28;20029;-54
2023/08/06 07:03:25;;;;;;;2.90;1.08;;;;;;;15.50;100.00;97940.22;5028814;28;20033;-53
2023/08/06 07:05:50;;;;;;;3.08;0.95;;;;;;;15.26;100.00;97951.41;5029781;28;20388;-53
2023/08/06 07:08:16;;;;;;;1.25;0.50;;;;;;;15.20;100.00;97949.72;5017981;28;20033;-53
2023/08/06 07:10:42;;;;;;;7.78;1.10;;;;;;;15.08;100.00;97946.28;5025057;28;20026;-53
2023/08/06 07:13:08;;;;;;;1.00;0.50;;;;;;;15.42;100.00;97941.50;5021945;28;20387;-53
2023/08/06 07:15:34;;;;;;;2.55;0.60;;;;;;;15.55;100.00;97938.38;5023032;28;20159;-54
2023/08/06 07:17:59;;;;;;;6.50;0.65;;;;;;;15.66;100.00;97942.03;5025193;28;20031;-54
2023/08/06 07:20:25;;;;;;;1.45;0.47;;;;;;;16.00;100.00;97930.91;5026399;28;20029;-56
2023/08/06 07:22:50;;;;;;;1.15;0.60;;;;;;;16.20;100.00;97942.00;5019449;28;20029;-54
2023/08/06 07:25:16;;;;;;;1.17;0.40;;;;;;;16.24;100.00;97938.75;5030022;28;20029;-53
2023/08/06 07:27:42;;;;;;;1.73;0.28;;;;;;;15.98;100.00;97939.38;5025134;28;20029;-54
2023/08/06 07:30:08;;;;;;;1.35;0.30;;;;;;;15.86;100.00;97946.06;5024417;28;20036;-53
2023/08/06 07:32:34;;;;;;;1.55;0.40;;;;;;;15.74;100.00;97943.50;5032382;28;20022;-54
2023/08/06 07:35:02;;;;;;;1.10;0.40;;;;;;;15.69;100.00;97936.09;5032048;28;20024;-54
2023/08/06 07:37:28;;;;;;;1.67;0.50;;;;;;;15.42;100.00;97941.50;5030110;28;20025;-53
2023/08/06 07:39:57;;;;;;;2.33;0.30;;;;;;;15.49;100.00;97946.75;5025122;28;20041;-54
2023/08/06 07:42:22;;;;;;;0.38;0.13;;;;;;;15.59;100.00;97943.31;5035860;28;20025;-56
2023/08/06 07:44:58;;;;;;;2.00;0.40;;;;;;;15.50;100.00;97949.22;5025581;28;20029;-58
2023/08/06 07:47:24;;;;;;;1.30;0.30;;;;;;;15.62;100.00;97946.34;5027338;28;20034;-53
2023/08/06 07:49:49;;;;;;;0.98;0.20;;;;;;;15.68;100.00;97950.78;5024206;28;20032;-53
2023/08/06 07:52:15;;;;;;;1.50;0.40;;;;;;;15.93;100.00;97935.78;5020411;28;20021;-53
2023/08/06 07:54:41;;;;;;;1.23;0.20;;;;;;;15.68;100.00;97939.88;5022202;28;20033;-56
2023/08/06 07:57:07;;;;;;;0.68;0.20;;;;;;;15.55;100.00;97934.81;5020129;28;20053;-53
2023/08/06 07:59:32;;;;;;;1.27;0.40;;;;;;;15.54;100.00;97939.47;5025967;28;20061;-54
2023/08/06 08:01:57;;;;;;;0.25;0.05;;;;;;;15.34;100.00;97955.59;5027861;28;20029;-53
2023/08/06 08:04:24;;;;;;;1.50;0.20;;;;;;;15.18;100.00;97951.03;5026139;28;20049;-53
2023/08/06 08:06:49;;;;;;;1.10;0.28;;;;;;;15.16;100.00;97945.81;5024338;28;20030;-54
2023/08/06 08:09:15;;;;;;;0.73;0.25;;;;;;;15.11;100.00;97957.47;5028292;28;20027;-53
2023/08/06 08:11:41;;;;;;;0.13;0.10;;;;;;;15.01;100.00;97946.50;5027744;28;20021;-54
2023/08/06 08:14:07;;;;;;;0.10;0.05;;;;;;;15.01;100.00;97949.22;5027344;28;20461;-56
2023/08/06 08:16:32;;;;;;;1.33;0.25;;;;;;;14.99;100.00;97943.19;5026255;28;20045;-53
2023/08/06 08:18:58;;;;;;;0.82;0.13;;;;;;;15.15;100.00;97940.66;5023466;28;20056;-54
2023/08/06 08:21:24;;;;;;;1.20;0.00;;;;;;;15.23;100.00;97941.03;5029461;28;20028;-54
2023/08/06 08:23:50;;;;;;;0.47;0.20;;;;;;;15.28;100.00;97940.25;5029606;28;20025;-55
2023/08/06 08:26:15;;;;;;;1.70;0.10;;;;;;;15.28;100.00;97932.09;5036258;28;20025;-54
2023/08/06 08:28:41;;;;;;;0.55;0.30;;;;;;;15.48;100.00;97940.50;5021672;28;20025;-54
2023/08/06 08:31:09;;;;;;;0.17;0.10;;;;;;;15.94;100.00;97930.03;5023861;28;20492;-53
2023/08/06 08:33:35;;;;;;;0.55;0.10;;;;;;;16.61;100.00;97914.13;5018770;28;20029;-53
2023/08/06 08:36:00;;;;;;;0.75;0.20;;;;;;;17.27;100.00;97910.94;5029482;28;20052;-58
2023/08/06 08:38:26;;;;;;;0.20;0.00;;;;;;;17.95;100.00;97900.69;5023773;28;20026;-54
2023/08/06 08:40:54;;;;;;;0.55;0.10;;;;;;;17.80;100.00;97892.47;5023154;28;20025;-54
2023/08/06 08:43:23;;;;;;;0.27;0.10;;;;;;;17.67;100.00;97896.53;5028561;28;20032;-54
2023/08/06 08:45:58;;;;;;;0.40;0.20;;;;;;;17.60;100.00;97903.34;5032660;28;20652;-58
2023/08/06 08:48:24;;;;;;;0.30;0.10;;;;;;;17.74;100.00;97899.00;5026784;28;20029;-53
2023/08/06 08:50:50;;;;;;;2.38;0.10;;;;;;;17.55;100.00;97898.69;5022637;28;20068;-53
2023/08/06 08:53:17;;;;;;;0.57;0.10;;;;;;;17.27;100.00;97900.81;5029246;28;20489;-53
2023/08/06 08:55:46;;;;;;;0.28;0.00;;;;;;;17.00;100.00;97911.09;5024544;28;20499;-54
2023/08/06 08:58:12;;;;;;;0.20;0.10;;;;;;;17.02;100.00;97909.75;5034061;28;20029;-54
2023/08/06 09:00:42;;;;;;;0.25;0.10;;;;;;;16.83;100.00;97906.66;5022463;28;20029;-53
2023/08/06 09:03:08;;;;;;;0.75;0.10;;;;;;;16.87;100.00;97896.00;5029035;28;20041;-55
2023/08/06 09:05:34;;;;;;;1.02;0.10;;;;;;;16.79;100.00;97894.63;5026339;28;20482;-54
2023/08/06 09:08:04;;;;;;;0.17;0.00;;;;;;;16.82;100.00;97891.38;5021152;28;20111;-53
2023/08/06 09:10:30;;;;;;;0.10;0.00;;;;;;;16.64;100.00;97905.44;5027635;28;20029;-56
2023/08/06 09:12:57;;;;;;;1.80;0.13;;;;;;;16.80;100.00;97903.66;5018342;28;20033;-53
2023/08/06 09:15:26;;;;;;;0.00;0.00;;;;;;;17.08;100.00;97896.91;5023906;28;20057;-54
2023/08/06 09:17:53;;;;;;;0.00;0.00;;;;;;;16.94;100.00;97906.72;5024384;28;20037;-53
2023/08/06 09:20:18;;;;;;;0.20;0.00;;;;;;;17.12;100.00;97906.22;5021693;28;20061;-61
2023/08/06 09:22:45;;;;;;;0.13;0.10;;;;;;;17.03;100.00;97899.66;5028383;28;20073;-55
2023/08/06 09:25:13;;;;;;;0.00;0.00;;;;;;;17.03;100.00;97911.41;5026754;28;20034;-54
2023/08/06 09:27:39;;;;;;;0.10;0.00;;;;;;;17.44;100.00;97916.16;5019368;28;20432;-53
2023/08/06 09:30:06;;;;;;;0.10;0.00;;;;;;;16.55;100.00;97920.66;5026343;28;20028;-53
2023/08/06 09:32:52;;;;;;;0.00;0.00;;;;;;;16.24;100.00;97916.91;5021879;28;20038;-53
2023/08/06 09:35:18;;;;;;;0.10;0.00;;;;;;;16.32;100.00;97928.19;5024346;28;20045;-53
2023/08/06 09:37:44;;;;;;;0.00;0.00;;;;;;;15.67;100.00;97921.88;5024184;28;20185;-53
2023/08/06 09:40:29;;;;;;;0.05;0.00;;;;;;;15.96;100.00;97936.06;5021516;28;20476;-53
2023/08/06 09:42:55;;;;;;;2.20;0.03;;;;;;;16.05;100.00;97943.78;5023142;28;20088;-53
2023/08/06 09:45:22;;;;;;;0.00;0.00;;;;;;;16.16;100.00;97940.03;5024206;28;20050;-53
2023/08/06 09:47:48;;;;;;;0.00;0.00;;;;;;;15.99;100.00;97932.81;5026192;28;20384;-53
2023/08/06 09:50:20;;;;;;;0.05;0.00;;;;;;;15.92;100.00;97936.84;5023459;28;20041;-53
2023/08/06 09:52:50;;;;;;;0.13;0.00;;;;;;;16.18;100.00;97935.16;5028441;28;20037;-53
2023/08/06 09:55:16;;;;;;;0.45;0.10;;;;;;;16.13;100.00;97941.38;5023390;28;20106;-53
2023/08/06 09:57:42;;;;;;;0.00;0.00;;;;;;;16.14;100.00;97921.22;5024928;28;20041;-53
2023/08/06 10:00:11;;;;;;;0.10;0.10;;;;;;;16.07;100.00;97917.88;5025066;28;20037;-53
2023/08/06 10:02:40;;;;;;;0.00;0.00;;;;;;;16.10;100.00;97932.91;5003806;28;20031;-55
2023/08/06 10:05:07;;;;;;;0.20;0.00;;;;;;;15.77;100.00;97953.88;5010567;28;20120;-53
2023/08/06 10:07:34;;;;;;;0.13;0.10;;;;;;;15.92;100.00;97937.66;5011634;28;20096;-54
2023/08/06 10:10:00;;;;;;;0.10;0.10;;;;;;;15.91;100.00;97935.22;5026759;28;20017;-53
2023/08/06 10:12:34;;;;;;;0.00;0.00;;;;;;;16.07;100.00;97933.44;5028622;28;20018;-53
2023/08/06 10:15:03;;;;;;;0.00;0.00;;;;;;;16.21;100.00;97931.91;5021920;28;20041;-53
2023/08/06 10:17:30;;;;;;;0.20;0.05;;;;;;;16.60;100.00;97912.50;5018866;28;20026;-53
2023/08/06 10:19:56;;;;;;;0.52;0.30;;;;;;;16.17;100.00;97926.16;5019972;28;20117;-53
2023/08/06 10:22:23;;;;;;;0.40;0.00;;;;;;;16.17;100.00;97926.16;5030959;28;20120;-53
2023/08/06 10:24:56;;;;;;;0.10;0.10;;;;;;;16.61;100.00;97925.06;5026331;28;20108;-53
2023/08/06 10:27:32;;;;;;;0.10;0.10;;;;;;;16.46;100.00;97935.91;5021099;28;20029;-53
2023/08/06 10:30:20;;;;;;;0.00;0.00;;;;;;;16.27;100.00;97935.47;5030508;28;20392;-53
2023/08/06 10:32:51;;;;;;;0.20;0.00;;;;;;;16.07;100.00;97941.63;5010907;28;20478;-53
2023/08/06 10:35:49;;;;;;;0.50;0.00;;;;;;;16.15;100.00;97941.97;5028516;28;20038;-53
2023/08/06 10:38:16;;;;;;;0.20;0.00;;;;;;;16.30;100.00;97937.72;5015838;28;20041;-53
2023/08/06 10:40:54;;;;;;;2.30;0.03;;;;;;;16.32;100.00;97940.97;5024010;28;20068;-55
2023/08/06 10:43:30;;;;;;;0.05;0.05;;;;;;;16.25;100.00;97946.69;5026033;28;20102;-53
2023/08/06 10:45:56;;;;;;;0.10;0.08;;;;;;;16.08;100.00;97956.91;5025993;28;20032;-53
2023/08/06 10:48:48;;;;;;;0.00;0.00;;;;;;;15.84;100.00;97946.31;5043688;28;20045;-53
2023/08/06 10:51:14;;;;;;;0.10;0.00;;;;;;;15.80;100.00;97931.56;5014136;28;20405;-53
2023/08/06 10:53:48;;;;;;;0.10;0.10;;;;;;;15.83;100.00;97930.22;5033953;28;20048;-53
2023/08/06 10:56:25;;;;;;;0.43;0.20;;;;;;;15.86;100.00;97940.63;5024934;28;20125;-53
2023/08/06 10:58:53;;;;;;;0.20;0.20;;;;;;;15.77;100.00;97960.19;5028587;28;20091;-52
2023/08/06 11:01:19;;;;;;;0.08;0.03;;;;;;;15.46;100.00;97948.09;5046444;28;20473;-53
2023/08/06 11:03:46;;;;;;;0.40;0.10;;;;;;;15.69;100.00;97960.66;5025573;28;20044;-60
2023/08/06 11:06:17;;;;;;;2.80;0.13;;;;;;;15.51;100.00;97945.44;5020955;28;20504;-54
2023/08/06 11:08:51;;;;;;;0.15;0.15;;;;;;;15.59;100.00;97952.31;5018435;28;20052;-54
2023/08/06 11:11:17;;;;;;;0.75;0.20;;;;;;;15.86;100.00;97957.81;5014107;28;20036;-53
2023/08/06 11:13:48;;;;;;;0.10;0.10;;;;;;;15.77;100.00;97954.72;5025214;28;20042;-53
2023/08/06 11:16:15;;;;;;;0.10;0.10;;;;;;;15.69;100.00;97971.56;5037206;28;20045;-53
2023/08/06 11:18:42;;;;;;;0.80;0.10;;;;;;;15.74;100.00;97959.84;5029036;28;20049;-53
2023/08/06 11:21:07;;;;;;;0.52;0.20;;;;;;;15.65;100.00;97977.75;5021811;28;20052;-53
2023/08/06 11:23:34;;;;;;;0.25;0.25;;;;;;;15.51;100.00;97975.41;5020555;28;20132;-54